Time;durP1;ratioP1;P1;durP2;ratioP2;P2;SDS_P1;SDS_P2;PMS_P1;PMS_P2;Temp;Humidity;BMP_temperature;BMP_pressure;BME280_temperature;BME280_humidity;BME280_pressure;Samples;Min_cycle;Max_cycle;Signal;HPM_P1;HPM_P2
2023/10/29 00:02:59;;;;;;;;;;;;;;;9.12;100.00;94548.69;10502249;28;2822;-73
2023/10/29 00:08:05;;;;;;;;;;;;;;;9.02;100.00;94555.00;10488292;28;2563;-78
2023/10/29 00:13:09;;;;;;;;;;;;;;;9.06;100.00;94556.00;10519735;28;2609;-74
2023/10/29 00:18:13;;;;;;;;;;;;;;;9.07;100.00;94543.41;10526022;28;2612;-72
2023/10/29 00:23:18;;;;;;;;;;;;;;;8.99;100.00;94546.75;10524754;28;2576;-73
2023/10/29 00:28:25;;;;;;;;;;;;;;;8.96;100.00;94556.16;10497001;28;2839;-75
2023/10/29 00:33:38;;;;;;;;;;;;;;;8.97;100.00;94548.91;10505662;28;2638;-78
2023/10/29 00:38:44;;;;;;;;;;;;;;;8.82;100.00;94572.19;10515267;28;2644;-75
2023/10/29 00:43:49;;;;;;;;;;;;;;;8.73;100.00;94565.91;10497926;28;2566;-76
2023/10/29 00:48:55;;;;;;;;;;;;;;;8.66;100.00;94560.94;10520857;28;2601;-73
2023/10/29 00:53:59;;;;;;;;;;;;;;;8.48;100.00;94567.09;10483170;28;2623;-72
2023/10/29 00:59:02;;;;;;;;;;;;;;;8.37;100.00;94565.63;10520241;28;2573;-72
2023/10/29 01:04:08;;;;;;;;;;;;;;;8.33;100.00;94564.56;10512928;28;2600;-73
2023/10/29 01:09:11;;;;;;;;;;;;;;;8.39;100.00;94566.91;10509075;28;2557;-74
2023/10/29 01:14:14;;;;;;;;;;;;;;;8.36;100.00;94558.69;10517822;28;2712;-73
2023/10/29 01:19:19;;;;;;;;;;;;;;;8.32;100.00;94557.63;10497700;28;2599;-71
2023/10/29 01:24:22;;;;;;;;;;;;;;;8.23;100.00;94543.31;10507875;28;2791;-71
2023/10/29 01:29:30;;;;;;;;;;;;;;;8.16;100.00;94558.94;10512766;28;2616;-76
2023/10/29 01:34:43;;;;;;;;;;;;;;;8.17;100.00;94549.81;10523841;28;2594;-72
2023/10/29 01:39:47;;;;;;;;;;;;;;;8.24;100.00;94534.19;10527235;27;2625;-71
2023/10/29 01:44:51;;;;;;;;;;;;;;;8.23;100.00;94529.91;10517813;28;2586;-72
2023/10/29 01:49:57;;;;;;;;;;;;;;;8.21;100.00;94532.09;10512652;28;2645;-71
2023/10/29 01:55:12;;;;;;;;;;;;;;;8.19;100.00;94528.91;10515447;28;2555;-74
2023/10/29 02:00:19;;;;;;;;;;;;;;;8.05;100.00;94526.13;10498803;28;2625;-72
2023/10/29 02:05:25;;;;;;;;;;;;;;;7.86;100.00;94531.47;10509887;28;2723;-72
2023/10/29 02:10:28;;;;;;;;;;;;;;;7.81;100.00;94540.34;10510243;28;2727;-73
2023/10/29 02:15:34;;;;;;;;;;;;;;;7.78;100.00;94540.13;10489457;28;2774;-72
2023/10/29 02:20:40;;;;;;;;;;;;;;;7.71;100.00;94537.00;10528198;28;2578;-71
2023/10/29 02:25:52;;;;;;;;;;;;;;;7.66;100.00;94529.03;10513201;28;2614;-73
2023/10/29 02:30:56;;;;;;;;;;;;;;;7.66;100.00;94534.38;10518522;28;2651;-74
2023/10/29 02:36:07;;;;;;;;;;;;;;;7.67;100.00;94519.91;10516065;28;2587;-75
2023/10/29 02:41:14;;;;;;;;;;;;;;;7.78;100.00;94513.38;10493604;28;2543;-72
2023/10/29 02:46:18;;;;;;;;;;;;;;;7.94;100.00;94519.31;10517041;28;2568;-72
2023/10/29 02:51:22;;;;;;;;;;;;;;;8.11;100.00;94507.03;10492659;28;5172;-71
2023/10/29 02:56:27;;;;;;;;;;;;;;;8.24;100.00;94502.06;10480080;28;2607;-71
2023/10/29 03:01:33;;;;;;;;;;;;;;;8.31;100.00;94505.16;10489995;28;2586;-73
2023/10/29 03:06:36;;;;;;;;;;;;;;;8.34;100.00;94497.38;10507741;28;2601;-72
2023/10/29 03:11:40;;;;;;;;;;;;;;;8.28;100.00;94495.06;10518664;28;2526;-73
2023/10/29 03:16:45;;;;;;;;;;;;;;;8.18;100.00;94489.84;10519684;28;2534;-72
2023/10/29 03:21:49;;;;;;;;;;;;;;;8.11;100.00;94488.31;10519160;28;2598;-74
2023/10/29 03:26:54;;;;;;;;;;;;;;;8.08;100.00;94494.25;10492817;28;2714;-72
2023/10/29 03:32:03;;;;;;;;;;;;;;;8.02;100.00;94487.38;10517055;28;2677;-70
2023/10/29 03:37:11;;;;;;;;;;;;;;;8.01;100.00;94483.09;10502669;28;2599;-73
2023/10/29 03:42:19;;;;;;;;;;;;;;;8.00;100.00;94478.81;10491925;28;2637;-73
2023/10/29 03:47:40;;;;;;;;;;;;;;;7.88;100.00;94494.50;10519733;28;2603;-73
2023/10/29 03:52:46;;;;;;;;;;;;;;;7.79;100.00;94490.88;10516938;28;2693;-73
2023/10/29 03:57:54;;;;;;;;;;;;;;;7.66;100.00;94487.03;10538007;28;2740;-71
2023/10/29 04:02:57;;;;;;;;;;;;;;;7.59;100.00;94465.97;10536066;28;2645;-75
2023/10/29 04:08:00;;;;;;;;;;;;;;;7.50;100.00;94462.34;10515446;28;2703;-73
2023/10/29 04:13:04;;;;;;;;;;;;;;;7.52;100.00;94459.41;10515112;28;2736;-72
2023/10/29 04:18:08;;;;;;;;;;;;;;;7.53;100.00;94450.28;10517876;28;2513;-72
2023/10/29 04:23:11;;;;;;;;;;;;;;;7.52;100.00;94446.81;10497562;28;2695;-73
2023/10/29 04:28:16;;;;;;;;;;;;;;;7.39;100.00;94447.53;10528287;28;2600;-73
2023/10/29 04:33:21;;;;;;;;;;;;;;;7.26;100.00;94445.53;10533491;27;2650;-74
2023/10/29 04:38:25;;;;;;;;;;;;;;;7.14;100.00;94445.13;10515097;28;2644;-73
2023/10/29 04:43:29;;;;;;;;;;;;;;;7.08;100.00;94440.91;10514063;28;2623;-72
2023/10/29 04:48:34;;;;;;;;;;;;;;;7.03;100.00;94442.56;10520075;28;5335;-72
2023/10/29 04:53:45;;;;;;;;;;;;;;;7.13;100.00;94440.88;10525075;28;2590;-73
2023/10/29 04:58:50;;;;;;;;;;;;;;;7.21;100.00;94437.56;10496499;28;2605;-72
2023/10/29 05:03:56;;;;;;;;;;;;;;;7.17;100.00;94431.19;10528263;28;2598;-73
2023/10/29 05:08:59;;;;;;;;;;;;;;;7.26;100.00;94430.28;10498348;28;2665;-72
2023/10/29 05:14:04;;;;;;;;;;;;;;;7.34;100.00;94410.16;10516914;28;3001;-71
2023/10/29 05:19:12;;;;;;;;;;;;;;;7.39;100.00;94402.06;10499467;28;2663;-71
2023/10/29 05:24:20;;;;;;;;;;;;;;;7.51;100.00;94404.34;10498550;28;2570;-74
2023/10/29 05:29:26;;;;;;;;;;;;;;;7.52;100.00;94396.00;10494989;28;2651;-71
2023/10/29 05:34:34;;;;;;;;;;;;;;;7.56;100.00;94396.22;10513124;28;2674;-78
2023/10/29 05:39:40;;;;;;;;;;;;;;;7.53;100.00;94397.59;10498311;28;2593;-74
2023/10/29 05:44:43;;;;;;;;;;;;;;;7.55;100.00;94414.16;10511659;28;2569;-75
2023/10/29 05:49:47;;;;;;;;;;;;;;;7.44;100.00;94409.22;10498457;28;5133;-74
2023/10/29 05:54:53;;;;;;;;;;;;;;;7.50;100.00;94422.22;10518951;28;2740;-79
2023/10/29 05:59:58;;;;;;;;;;;;;;;7.43;100.00;94424.47;10516904;28;2553;-72
2023/10/29 06:05:03;;;;;;;;;;;;;;;7.46;100.00;94418.56;10513119;28;2603;-73
2023/10/29 06:10:08;;;;;;;;;;;;;;;7.47;100.00;94435.38;10508128;28;2625;-71
2023/10/29 06:15:15;;;;;;;;;;;;;;;7.61;100.00;94435.47;10529868;28;2619;-73
2023/10/29 06:20:22;;;;;;;;;;;;;;;7.75;100.00;94426.44;10519679;28;2742;-71
2023/10/29 06:25:31;;;;;;;;;;;;;;;8.02;100.00;94417.81;10514738;28;2632;-71
2023/10/29 06:30:35;;;;;;;;;;;;;;;8.30;100.00;94409.88;10510776;28;2739;-73
2023/10/29 06:35:38;;;;;;;;;;;;;;;8.56;100.00;94413.75;10510745;28;2655;-72
2023/10/29 06:40:44;;;;;;;;;;;;;;;8.69;100.00;94412.19;10516867;28;2584;-72
2023/10/29 06:45:49;;;;;;;;;;;;;;;8.71;100.00;94414.56;10524982;28;2557;-71
2023/10/29 06:50:56;;;;;;;;;;;;;;;8.69;100.00;94422.13;10521008;28;5218;-73
2023/10/29 06:56:03;;;;;;;;;;;;;;;8.80;100.00;94428.91;10525731;28;2698;-72
2023/10/29 07:01:16;;;;;;;;;;;;;;;8.89;100.00;94427.91;10538606;28;2601;-70
2023/10/29 07:06:22;;;;;;;;;;;;;;;9.15;100.00;94425.56;10527804;28;2672;-71
2023/10/29 07:11:34;;;;;;;;;;;;;;;9.45;100.00;94415.34;10522496;28;2732;-74
2023/10/29 07:16:39;;;;;;;;;;;;;;;9.73;100.00;94419.59;10517587;28;2580;-73
2023/10/29 07:21:45;;;;;;;;;;;;;;;10.23;100.00;94416.09;10524566;28;2719;-74
2023/10/29 07:26:50;;;;;;;;;;;;;;;10.78;100.00;94418.53;10497440;28;2587;-73
2023/10/29 07:31:55;;;;;;;;;;;;;;;11.22;100.00;94422.25;10520944;28;2580;-73
2023/10/29 07:37:04;;;;;;;;;;;;;;;11.51;100.00;94427.09;10517668;28;2592;-73
2023/10/29 07:42:07;;;;;;;;;;;;;;;11.64;100.00;94426.16;10526889;28;2759;-73
2023/10/29 07:47:11;;;;;;;;;;;;;;;11.58;100.00;94440.91;10488067;28;2589;-72
2023/10/29 07:52:17;;;;;;;;;;;;;;;11.32;100.00;94444.28;10519818;28;5265;-73
2023/10/29 07:57:24;;;;;;;;;;;;;;;11.15;100.00;94456.84;10522519;28;2672;-73
2023/10/29 08:02:30;;;;;;;;;;;;;;;11.32;100.00;94462.28;10510194;28;2679;-75
2023/10/29 08:07:36;;;;;;;;;;;;;;;11.48;100.00;94463.50;10519805;28;2597;-74
2023/10/29 08:12:44;;;;;;;;;;;;;;;11.46;100.00;94459.53;10518600;28;2652;-73
2023/10/29 08:17:50;;;;;;;;;;;;;;;11.59;100.00;94462.13;10518562;28;2525;-73
2023/10/29 08:22:53;;;;;;;;;;;;;;;11.70;100.00;94470.69;10508604;28;2542;-74
2023/10/29 08:28:03;;;;;;;;;;;;;;;11.94;100.00;94469.50;10517460;28;2722;-73
2023/10/29 08:33:08;;;;;;;;;;;;;;;12.27;100.00;94462.59;10510351;28;2627;-74
2023/10/29 08:38:12;;;;;;;;;;;;;;;12.41;100.00;94465.94;10479271;28;2636;-73
2023/10/29 08:43:19;;;;;;;;;;;;;;;12.55;100.00;94471.19;10519891;28;2635;-74
2023/10/29 08:48:24;;;;;;;;;;;;;;;12.85;100.00;94484.78;10525299;28;4912;-73
2023/10/29 08:53:33;;;;;;;;;;;;;;;13.11;100.00;94474.78;10511433;28;1977;-73
2023/10/29 08:58:37;;;;;;;;;;;;;;;13.48;100.00;94475.94;10526831;28;1889;-75
2023/10/29 09:03:43;;;;;;;;;;;;;;;14.07;100.00;94469.81;10521748;28;1805;-73
2023/10/29 09:08:47;;;;;;;;;;;;;;;14.41;100.00;94474.19;10526602;28;3081;-74
2023/10/29 09:13:52;;;;;;;;;;;;;;;14.94;100.00;94475.38;10527913;28;1918;-75
2023/10/29 09:18:57;;;;;;;;;;;;;;;15.10;100.00;94479.06;10510430;28;1544;-72
2023/10/29 09:24:02;;;;;;;;;;;;;;;15.10;100.00;94479.06;10529882;28;1823;-72
2023/10/29 09:29:05;;;;;;;;;;;;;;;14.99;100.00;94474.38;10520021;28;1624;-73
2023/10/29 09:34:10;;;;;;;;;;;;;;;14.88;100.00;94474.78;10527904;28;1906;-75
2023/10/29 09:39:15;;;;;;;;;;;;;;;14.95;100.00;94471.56;10524060;28;1473;-73
2023/10/29 09:44:28;;;;;;;;;;;;;;;15.18;100.00;94461.16;10530260;28;1442;-73
2023/10/29 09:49:31;;;;;;;;;;;;;;;15.50;98.70;94442.47;10501740;28;4661;-72
2023/10/29 09:54:38;;;;;;;;;;;;;;;15.82;96.98;94451.69;10505681;28;2809;-72
2023/10/29 09:59:44;;;;;;;;;;;;;;;16.35;86.80;94452.53;10523326;28;1542;-73
2023/10/29 10:04:50;;;;;;;;;;;;;;;16.47;85.53;94457.94;10515658;28;2693;-71
2023/10/29 10:09:57;;;;;;;;;;;;;;;16.63;83.49;94455.31;10527529;28;2604;-72
2023/10/29 10:15:01;;;;;;;;;;;;;;;16.84;81.28;94449.72;10515997;28;2663;-74
2023/10/29 10:20:11;;;;;;;;;;;;;;;17.05;83.08;94450.31;10496684;28;2599;-73
2023/10/29 10:25:15;;;;;;;;;;;;;;;17.34;72.78;94451.84;10512001;28;2608;-72
2023/10/29 10:30:22;;;;;;;;;;;;;;;17.52;73.18;94446.91;10518132;28;2548;-72
2023/10/29 10:35:35;;;;;;;;;;;;;;;17.55;69.35;94440.75;10510928;28;2631;-73
2023/10/29 10:40:38;;;;;;;;;;;;;;;18.06;65.79;94438.91;10531291;27;2725;-73
2023/10/29 10:45:55;;;;;;;;;;;;;;;18.43;63.67;94430.41;10521862;28;2721;-73
2023/10/29 10:50:59;;;;;;;;;;;;;;;18.39;63.71;94434.22;10516108;28;4718;-73
2023/10/29 10:56:03;;;;;;;;;;;;;;;18.53;61.95;94426.34;10495516;28;2604;-73
2023/10/29 11:01:08;;;;;;;;;;;;;;;19.01;58.15;94419.56;10515599;28;2878;-73
2023/10/29 11:06:13;;;;;;;;;;;;;;;19.02;57.71;94414.91;10494153;28;2648;-71
2023/10/29 11:11:23;;;;;;;;;;;;;;;19.19;54.65;94411.75;10516417;28;2624;-74
2023/10/29 11:16:34;;;;;;;;;;;;;;;19.60;54.29;94399.28;10501927;28;2636;-73
2023/10/29 11:21:41;;;;;;;;;;;;;;;19.58;51.53;94417.13;10500102;28;2678;-74
2023/10/29 11:26:44;;;;;;;;;;;;;;;19.69;51.53;94418.09;10490441;28;2910;-76
2023/10/29 11:31:50;;;;;;;;;;;;;;;19.68;51.85;94422.75;10514162;28;2757;-76
2023/10/29 11:36:57;;;;;;;;;;;;;;;19.93;50.00;94409.53;10504623;28;2556;-74
2023/10/29 11:42:05;;;;;;;;;;;;;;;20.00;48.27;94406.13;10503707;28;2599;-77
2023/10/29 11:47:08;;;;;;;;;;;;;;;20.06;49.87;94403.88;10506481;28;2637;-74
2023/10/29 11:52:12;;;;;;;;;;;;;;;20.18;48.85;94393.53;10508545;28;4718;-74
2023/10/29 11:57:28;;;;;;;;;;;;;;;20.38;49.33;94380.56;10471995;28;2640;-77
2023/10/29 12:02:33;;;;;;;;;;;;;;;20.42;47.71;94388.78;10500022;28;2688;-73
2023/10/29 12:07:37;;;;;;;;;;;;;;;20.57;50.09;94387.06;10504773;28;2609;-73
2023/10/29 12:12:41;;;;;;;;;;;;;;;20.70;50.24;94388.41;10477555;28;2574;-72
2023/10/29 12:23:05;;;;;;;;;;;;;;;21.03;47.45;94399.31;10513189;28;2596;-73
2023/10/29 12:28:12;;;;;;;;;;;;;;;21.13;45.13;94386.97;10515415;28;2630;-74
2023/10/29 12:33:23;;;;;;;;;;;;;;;20.90;47.83;94381.63;10512712;28;2608;-72
2023/10/29 12:38:28;;;;;;;;;;;;;;;20.30;59.90;94373.44;10514585;28;2566;-72
2023/10/29 12:43:33;;;;;;;;;;;;;;;20.03;75.65;94372.66;10478021;28;2699;-74
2023/10/29 12:48:38;;;;;;;;;;;;;;;19.41;100.00;94364.66;10492328;28;4619;-71
2023/10/29 12:53:44;;;;;;;;;;;;;;;19.13;100.00;94375.03;10495778;28;2601;-74
2023/10/29 12:58:47;;;;;;;;;;;;;;;18.33;100.00;94371.13;10493178;28;2594;-75
2023/10/29 13:03:52;;;;;;;;;;;;;;;17.99;100.00;94372.72;10490972;28;2569;-72
2023/10/29 13:08:55;;;;;;;;;;;;;;;17.96;100.00;94378.88;10531345;28;2717;-75
2023/10/29 13:14:02;;;;;;;;;;;;;;;17.66;100.00;94375.81;10517767;28;2621;-74
2023/10/29 13:19:13;;;;;;;;;;;;;;;17.41;100.00;94376.00;10507133;28;2859;-73
2023/10/29 13:24:29;;;;;;;;;;;;;;;17.52;100.00;94381.69;10512487;28;2589;-72
2023/10/29 13:29:35;;;;;;;;;;;;;;;17.14;100.00;94402.06;10497365;28;2601;-72
2023/10/29 13:34:45;;;;;;;;;;;;;;;16.97;100.00;94396.97;10510972;28;2597;-74
2023/10/29 13:39:51;;;;;;;;;;;;;;;17.01;100.00;94392.44;10515850;28;2734;-70
2023/10/29 13:45:00;;;;;;;;;;;;;;;16.63;100.00;94385.56;10533254;28;2584;-72
2023/10/29 13:50:05;;;;;;;;;;;;;;;16.44;100.00;94375.34;10507517;28;4750;-74
2023/10/29 13:55:09;;;;;;;;;;;;;;;16.43;100.00;94375.69;10513880;28;2733;-74
2023/10/29 14:00:16;;;;;;;;;;;;;;;16.34;100.00;94373.09;10524846;27;2565;-75
2023/10/29 14:05:20;;;;;;;;;;;;;;;16.26;100.00;94365.91;10510023;28;2604;-74
2023/10/29 14:10:24;;;;;;;;;;;;;;;16.18;100.00;94366.84;10510421;28;2741;-73
2023/10/29 14:15:28;;;;;;;;;;;;;;;16.10;100.00;94373.97;10505641;28;2693;-71
2023/10/29 14:20:38;;;;;;;;;;;;;;;16.13;100.00;94358.94;10527597;28;2565;-71
2023/10/29 14:25:42;;;;;;;;;;;;;;;16.11;100.00;94356.56;10516100;28;2730;-72
2023/10/29 14:30:48;;;;;;;;;;;;;;;16.04;100.00;94342.81;10513257;28;2592;-74
2023/10/29 14:35:58;;;;;;;;;;;;;;;15.95;100.00;94340.22;10515760;28;2769;-74
2023/10/29 14:41:06;;;;;;;;;;;;;;;15.86;100.00;94350.41;10494258;28;2659;-73
2023/10/29 14:46:11;;;;;;;;;;;;;;;15.65;100.00;94361.41;10494891;28;2564;-75
2023/10/29 14:51:17;;;;;;;;;;;;;;;15.42;100.00;94343.97;10515880;28;2581;-74
2023/10/29 14:56:25;;;;;;;;;;;;;;;15.37;100.00;94341.50;10509225;28;2585;-73
2023/10/29 15:01:29;;;;;;;;;;;;;;;15.18;100.00;94343.97;10525354;28;2566;-72
2023/10/29 15:06:32;;;;;;;;;;;;;;;14.95;100.00;94338.19;10493751;28;2656;-73
2023/10/29 15:11:35;;;;;;;;;;;;;;;14.80;100.00;94334.22;10501727;28;2679;-72
2023/10/29 15:16:44;;;;;;;;;;;;;;;14.70;100.00;94319.22;10500664;28;2558;-73
2023/10/29 15:21:58;;;;;;;;;;;;;;;14.62;100.00;94322.00;10529666;28;2723;-73
2023/10/29 15:27:03;;;;;;;;;;;;;;;14.43;100.00;94320.53;10522950;28;2553;-74
2023/10/29 15:32:09;;;;;;;;;;;;;;;14.31;100.00;94331.31;10510585;28;2612;-73
2023/10/29 15:37:15;;;;;;;;;;;;;;;14.21;100.00;94320.94;10517352;28;2656;-71
2023/10/29 15:42:21;;;;;;;;;;;;;;;14.04;100.00;94328.03;10518605;28;2597;-75
2023/10/29 15:47:26;;;;;;;;;;;;;;;13.88;100.00;94324.38;10516594;28;2548;-73
2023/10/29 15:52:29;;;;;;;;;;;;;;;13.79;100.00;94334.44;10520013;28;4647;-75
2023/10/29 15:57:47;;;;;;;;;;;;;;;13.73;100.00;94330.34;10518234;28;2602;-72
2023/10/29 16:02:52;;;;;;;;;;;;;;;13.62;100.00;94331.88;10522528;28;2600;-73
2023/10/29 16:07:57;;;;;;;;;;;;;;;13.54;100.00;94322.69;10522696;27;2630;-73
2023/10/29 16:13:06;;;;;;;;;;;;;;;13.43;100.00;94325.00;10495497;28;2581;-71
2023/10/29 16:18:11;;;;;;;;;;;;;;;13.42;100.00;94326.09;10507354;28;2549;-72
2023/10/29 16:23:16;;;;;;;;;;;;;;;13.21;100.00;94319.84;10509682;28;1947;-72
2023/10/29 16:28:20;;;;;;;;;;;;;;;12.97;100.00;94323.88;10544246;27;1492;-75
2023/10/29 16:33:28;;;;;;;;;;;;;;;12.91;100.00;94319.78;10518409;28;1936;-72
2023/10/29 16:38:32;;;;;;;;;;;;;;;12.86;100.00;94324.59;10527385;28;1831;-72
2023/10/29 16:43:37;;;;;;;;;;;;;;;12.76;100.00;94322.22;10538500;28;1487;-73
2023/10/29 16:48:45;;;;;;;;;;;;;;;12.67;100.00;94335.75;10510492;28;4775;-73
2023/10/29 16:53:49;;;;;;;;;;;;;;;12.55;100.00;94344.50;10509672;28;2561;-73
2023/10/29 16:58:54;;;;;;;;;;;;;;;12.52;100.00;94355.09;10541539;28;1519;-73
2023/10/29 17:03:59;;;;;;;;;;;;;;;12.52;100.00;94347.81;10513392;28;1644;-71
2023/10/29 17:09:06;;;;;;;;;;;;;;;12.72;100.00;94340.94;10522683;28;1857;-75
2023/10/29 17:14:14;;;;;;;;;;;;;;;12.96;100.00;94341.19;10519818;28;1902;-74
2023/10/29 17:19:20;;;;;;;;;;;;;;;13.08;100.00;94343.22;10517914;28;1596;-72
2023/10/29 17:24:27;;;;;;;;;;;;;;;13.18;100.00;94342.06;10530245;28;1848;-77
2023/10/29 17:29:54;;;;;;;;;;;;;;;13.50;100.00;94354.94;10514450;28;1560;-75
2023/10/29 17:34:57;;;;;;;;;;;;;;;13.45;100.00;94352.44;10527782;28;1906;-73
2023/10/29 17:40:00;;;;;;;;;;;;;;;13.42;100.00;94358.50;10504725;28;1604;-77
2023/10/29 17:45:02;;;;;;;;;;;;;;;13.57;100.00;94367.94;10532193;28;1496;-77
2023/10/29 17:50:10;;;;;;;;;;;;;;;13.50;100.00;94386.56;10525714;28;4766;-77
2023/10/29 17:55:16;;;;;;;;;;;;;;;13.37;100.00;94399.16;10530594;28;1913;-76
2023/10/29 18:00:31;;;;;;;;;;;;;;;13.29;100.00;94405.38;10505658;28;1509;-75
2023/10/29 18:05:52;;;;;;;;;;;;;;;13.26;100.00;94397.94;10501745;28;1817;-73
2023/10/29 18:10:55;;;;;;;;;;;;;;;13.27;100.00;94402.22;10532180;28;2424;-74
2023/10/29 18:16:03;;;;;;;;;;;;;;;13.23;100.00;94406.66;10524308;28;1906;-73
2023/10/29 18:21:06;;;;;;;;;;;;;;;13.24;100.00;94421.75;10508071;28;2630;-73
2023/10/29 18:26:11;;;;;;;;;;;;;;;13.22;100.00;94423.97;10511820;28;2529;-72
2023/10/29 18:31:19;;;;;;;;;;;;;;;13.24;100.00;94427.16;10525485;28;2693;-73
2023/10/29 18:36:26;;;;;;;;;;;;;;;13.17;100.00;94432.22;10534977;28;2568;-73
2023/10/29 18:41:31;;;;;;;;;;;;;;;13.20;100.00;94437.78;10480165;28;2812;-74
2023/10/29 18:46:36;;;;;;;;;;;;;;;13.21;100.00;94465.56;10517070;28;2631;-74
2023/10/29 18:51:43;;;;;;;;;;;;;;;13.26;100.00;94473.50;10520776;28;2668;-73
2023/10/29 18:56:46;;;;;;;;;;;;;;;13.06;100.00;94491.13;10514750;28;2665;-72
2023/10/29 19:01:53;;;;;;;;;;;;;;;12.93;100.00;94506.38;10523149;28;2697;-74
2023/10/29 19:07:03;;;;;;;;;;;;;;;12.92;100.00;94504.78;10506825;28;2541;-71
2023/10/29 19:12:09;;;;;;;;;;;;;;;12.70;100.00;94516.53;10535578;28;1999;-72
2023/10/29 19:17:14;;;;;;;;;;;;;;;12.59;100.00;94528.72;10508889;28;1906;-72
2023/10/29 19:22:19;;;;;;;;;;;;;;;12.37;100.00;94529.66;10514203;28;1546;-73
2023/10/29 19:27:25;;;;;;;;;;;;;;;12.25;100.00;94537.56;10526112;28;2018;-73
2023/10/29 19:32:35;;;;;;;;;;;;;;;12.16;100.00;94544.84;10536183;28;1552;-74
2023/10/29 19:37:47;;;;;;;;;;;;;;;12.09;100.00;94539.13;10533194;28;2654;-72
2023/10/29 19:42:53;;;;;;;;;;;;;;;11.92;100.00;94549.84;10525772;28;2619;-73
2023/10/29 19:48:05;;;;;;;;;;;;;;;12.03;100.00;94564.59;10509321;28;4638;-71
2023/10/29 19:58:33;;;;;;;;;;;;;;;11.90;100.00;94579.78;10527633;28;1922;-74
2023/10/29 20:03:38;;;;;;;;;;;;;;;11.96;100.00;94583.91;10541580;28;2523;-75
2023/10/29 20:08:44;;;;;;;;;;;;;;;11.93;100.00;94597.19;10529023;28;1760;-73
2023/10/29 20:13:52;;;;;;;;;;;;;;;11.93;100.00;94589.13;10531984;28;1791;-72
2023/10/29 20:19:02;;;;;;;;;;;;;;;12.00;100.00;94602.91;10529038;28;1933;-75
2023/10/29 20:24:07;;;;;;;;;;;;;;;12.01;100.00;94601.81;10532761;28;1802;-75
2023/10/29 20:29:14;;;;;;;;;;;;;;;12.00;100.00;94605.63;10529611;28;2650;-75
2023/10/29 20:34:23;;;;;;;;;;;;;;;11.97;100.00;94606.25;10512886;28;2623;-74
2023/10/29 20:39:27;;;;;;;;;;;;;;;11.85;100.00;94614.91;10506016;28;2849;-75
2023/10/29 20:44:33;;;;;;;;;;;;;;;11.78;100.00;94615.31;10510967;28;2531;-76
2023/10/29 20:49:41;;;;;;;;;;;;;;;11.83;100.00;94623.28;10505515;28;2593;-76
2023/10/29 20:54:47;;;;;;;;;;;;;;;11.79;100.00;94630.34;10513644;28;2623;-74
2023/10/29 21:00:14;;;;;;;;;;;;;;;11.82;100.00;94624.38;10515011;28;2715;-77
2023/10/29 21:05:18;;;;;;;;;;;;;;;11.83;100.00;94628.69;10515823;28;2541;-72
2023/10/29 21:10:23;;;;;;;;;;;;;;;11.81;100.00;94630.06;10512992;28;2692;-72
2023/10/29 21:15:27;;;;;;;;;;;;;;;11.80;100.00;94629.25;10520123;28;2648;-72
2023/10/29 21:20:35;;;;;;;;;;;;;;;11.80;100.00;94637.34;10515621;28;2964;-72
2023/10/29 21:25:46;;;;;;;;;;;;;;;11.70;100.00;94645.66;10511471;28;2695;-72
2023/10/29 21:30:50;;;;;;;;;;;;;;;11.67;100.00;94650.88;10491714;28;2573;-73
2023/10/29 21:35:56;;;;;;;;;;;;;;;11.70;100.00;94661.81;10488702;28;2704;-73
2023/10/29 21:41:01;;;;;;;;;;;;;;;11.68;100.00;94674.00;10524442;27;2693;-73
2023/10/29 21:46:05;;;;;;;;;;;;;;;11.55;100.00;94675.66;10511639;28;2767;-73
2023/10/29 21:51:14;;;;;;;;;;;;;;;11.61;100.00;94664.44;10494073;28;4682;-73
2023/10/29 21:56:24;;;;;;;;;;;;;;;11.53;100.00;94659.03;10489114;28;2570;-72
2023/10/29 22:01:30;;;;;;;;;;;;;;;11.51;100.00;94678.16;10494591;28;2585;-72
2023/10/29 22:06:35;;;;;;;;;;;;;;;11.44;100.00;94674.28;10510517;28;2616;-72
2023/10/29 22:11:38;;;;;;;;;;;;;;;11.37;100.00;94680.09;10514907;28;2648;-73
2023/10/29 22:16:42;;;;;;;;;;;;;;;11.45;100.00;94686.66;10505822;28;2558;-71
2023/10/29 22:21:45;;;;;;;;;;;;;;;11.36;100.00;94684.69;10512456;28;2541;-77
2023/10/29 22:26:49;;;;;;;;;;;;;;;11.23;100.00;94706.25;10531233;28;2605;-72
2023/10/29 22:31:55;;;;;;;;;;;;;;;11.20;100.00;94707.66;10503461;28;2612;-77
2023/10/29 22:36:59;;;;;;;;;;;;;;;11.10;100.00;94710.56;10518278;28;2647;-72
2023/10/29 22:42:06;;;;;;;;;;;;;;;11.02;100.00;94705.91;10500533;28;2546;-72
2023/10/29 22:47:11;;;;;;;;;;;;;;;10.80;100.00;94720.88;10512761;28;2791;-71
2023/10/29 22:52:17;;;;;;;;;;;;;;;10.72;100.00;94718.88;10514359;28;2615;-72
2023/10/29 22:57:24;;;;;;;;;;;;;;;10.64;100.00;94719.59;10518954;28;2659;-71
2023/10/29 23:02:32;;;;;;;;;;;;;;;10.55;100.00;94722.16;10516450;28;2683;-75
2023/10/29 23:07:36;;;;;;;;;;;;;;;10.48;100.00;94711.03;10536337;28;2632;-71
2023/10/29 23:12:39;;;;;;;;;;;;;;;10.39;100.00;94720.09;10500568;28;2733;-71
2023/10/29 23:17:46;;;;;;;;;;;;;;;10.30;100.00;94719.97;10519631;28;2591;-71
2023/10/29 23:22:49;;;;;;;;;;;;;;;10.19;100.00;94722.03;10518945;28;2625;-72
2023/10/29 23:27:55;;;;;;;;;;;;;;;10.21;100.00;94714.47;10502181;28;2623;-72
2023/10/29 23:32:57;;;;;;;;;;;;;;;10.20;100.00;94715.56;10517898;28;2636;-72
2023/10/29 23:38:01;;;;;;;;;;;;;;;10.10;100.00;94725.69;10518237;28;2641;-78
2023/10/29 23:43:09;;;;;;;;;;;;;;;9.99;100.00;94723.19;10491279;28;2645;-77
2023/10/29 23:48:15;;;;;;;;;;;;;;;9.91;100.00;94721.16;10531221;27;4712;-76
2023/10/29 23:53:19;;;;;;;;;;;;;;;9.86;100.00;94713.22;10520483;28;2569;-74
2023/10/29 23:58:22;;;;;;;;;;;;;;;9.72;100.00;94729.25;10502882;28;2675;-74
